Página principal
METAR-TAF:

METAR-TAF

Aeroportos :

Shijiazhuang, China

latitude: 38-16-51N, longitude: 114-41-48E, altura: 233 m

Observação actual do tempo

O boletim foi feito há 21 horas e 18 minutos, às 00:00 UTC
Vento 2 kt de nor-noroeste
Temperatura 28°C
Humidade 62%
Pressão 1005 hPa
Visibilidade 10 km ou mais
sem nuvens abaixo de 1500 metros e sem cumulonimbus

METAR: ZBSJ 210000Z 33001MPS CAVOK 28/20 Q1005 NOSIG

Hora: 05:18 (21:18 UTC)

Previsão

O boletim foi feito há 26 horas e 11 minutos, às 19:07 UTC
Previsão válida de 21 às 00 UTC a 21 às 24 UTC
Vento 8 kt de nor-noroeste
Visibilidade 10 km ou mais
sem nuvens abaixo de 1500 metros e sem cumulonimbus

TAF: ZBSJ 201907Z 2100/2124 33004MPS CAVOK TX32/2106Z TN23/2121Z

Observações e previsões do tempo de mais de 4000 aeroportos (mensagens METAR e TAF).

As estações disponíveis são os pontos amarelos e vermelhos sobre o mapa.

Mova o rato sobre o mapa para ver o nome da estação.

Depois clique no ponto para visualizar as observações e previsões meteorológicas.

Para alterar o mapa : clique nos botões verdes com uma cruz preta para aumentar o zoom; no botão verde com uma pitada de zoom; ou nas setas verdes para mapas adjacentes.


METAR-TAF: